UAL3242 KLAL-KLAN
Flight info
| Callsign | UAL3242 |
|---|---|
| Flight time | N/A |
| Altitude | 41000 |
| Route | NITTS WILON CAMJO ALLMA MHONY DEWAK PKACZ JECKA |
| Aircraft | A359/H-SDE2E3GHIJ3J4J5LM1ORWXY/LB1D1 |
Departure
| Time | N/A |
|---|---|
| Airport | Lakeland Linder International Airport (KLAL) |
Arrival
| Time | 2026-04-26 11:30 |
|---|---|
| Airport | Capital Region International Airport (KLAN) |
| Time | Latitude | Longitude | Altitude | Speed | Heading |
|---|---|---|---|---|---|
| 2026-04-26 11:04 | 40.66501 | -83.67212 | 37404 ft | 464 kts | 351° |
| 2026-04-26 11:04 | 40.69717 | -83.67657 | 37140 ft | 464 kts | 351° |
| 2026-04-26 11:04 | 40.72894 | -83.68096 | 36881 ft | 465 kts | 351° |
| 2026-04-26 11:05 | 40.76116 | -83.68542 | 36618 ft | 465 kts | 351° |
| 2026-04-26 11:05 | 40.79352 | -83.68991 | 36362 ft | 466 kts | 351° |
| 2026-04-26 11:05 | 40.82584 | -83.69439 | 36108 ft | 466 kts | 351° |
| 2026-04-26 11:05 | 40.85822 | -83.69889 | 35851 ft | 467 kts | 351° |
| 2026-04-26 11:06 | 40.89059 | -83.70339 | 35603 ft | 468 kts | 352° |
| 2026-04-26 11:06 | 40.92255 | -83.70783 | 35311 ft | 466 kts | 352° |
| 2026-04-26 11:06 | 40.95469 | -83.71230 | 34788 ft | 462 kts | 352° |
| 2026-04-26 11:06 | 40.98667 | -83.71675 | 34099 ft | 462 kts | 352° |
| 2026-04-26 11:07 | 41.01866 | -83.72122 | 33331 ft | 462 kts | 352° |
| 2026-04-26 11:07 | 41.05059 | -83.72568 | 32613 ft | 461 kts | 352° |
| 2026-04-26 11:07 | 41.08244 | -83.73013 | 31895 ft | 460 kts | 352° |
| 2026-04-26 11:07 | 41.11429 | -83.73459 | 31163 ft | 460 kts | 352° |
| 2026-04-26 11:08 | 41.14624 | -83.73907 | 30410 ft | 461 kts | 352° |
| 2026-04-26 11:08 | 41.17797 | -83.74493 | 29640 ft | 459 kts | 346° |
| 2026-04-26 11:08 | 41.20806 | -83.75781 | 29120 ft | 452 kts | 335° |
| 2026-04-26 11:08 | 41.23635 | -83.77549 | 28602 ft | 448 kts | 333° |
| 2026-04-26 11:09 | 41.26386 | -83.79384 | 28098 ft | 445 kts | 332° |
| 2026-04-26 11:09 | 41.29138 | -83.81248 | 27567 ft | 442 kts | 332° |
| 2026-04-26 11:09 | 41.31867 | -83.83108 | 27061 ft | 439 kts | 332° |
| 2026-04-26 11:09 | 41.34578 | -83.84962 | 26552 ft | 436 kts | 332° |
| 2026-04-26 11:10 | 41.37269 | -83.86805 | 26049 ft | 434 kts | 332° |
| 2026-04-26 11:10 | 41.39942 | -83.88640 | 25555 ft | 431 kts | 332° |
| 2026-04-26 11:10 | 41.42611 | -83.90475 | 25059 ft | 428 kts | 332° |
| 2026-04-26 11:10 | 41.45252 | -83.92291 | 24589 ft | 426 kts | 332° |
| 2026-04-26 11:11 | 41.47859 | -83.94087 | 24091 ft | 425 kts | 332° |
| 2026-04-26 11:11 | 41.50480 | -83.95894 | 23607 ft | 423 kts | 332° |
| 2026-04-26 11:11 | 41.53095 | -83.97698 | 23079 ft | 420 kts | 332° |
| 2026-04-26 11:11 | 41.55680 | -83.99484 | 22590 ft | 417 kts | 332° |
| 2026-04-26 11:12 | 41.58261 | -84.01268 | 22111 ft | 414 kts | 332° |
| 2026-04-26 11:12 | 41.60778 | -84.03009 | 21638 ft | 412 kts | 332° |
| 2026-04-26 11:12 | 41.63314 | -84.04765 | 21031 ft | 410 kts | 331° |
| 2026-04-26 11:12 | 41.65836 | -84.06513 | 20492 ft | 405 kts | 331° |
| 2026-04-26 11:13 | 41.68325 | -84.08240 | 20016 ft | 400 kts | 331° |
| 2026-04-26 11:13 | 41.70790 | -84.09952 | 19537 ft | 398 kts | 331° |
| 2026-04-26 11:13 | 41.73239 | -84.11654 | 19056 ft | 396 kts | 331° |
| 2026-04-26 11:13 | 41.75676 | -84.13350 | 18600 ft | 393 kts | 331° |
| 2026-04-26 11:14 | 41.78100 | -84.15038 | 18072 ft | 390 kts | 331° |
| 2026-04-26 11:14 | 41.80499 | -84.16710 | 17579 ft | 387 kts | 331° |
| 2026-04-26 11:14 | 41.82884 | -84.18373 | 17108 ft | 384 kts | 331° |
| 2026-04-26 11:14 | 41.85221 | -84.20004 | 16630 ft | 381 kts | 331° |
| 2026-04-26 11:15 | 41.87566 | -84.21642 | 16156 ft | 378 kts | 331° |
| 2026-04-26 11:15 | 41.89892 | -84.23269 | 15675 ft | 375 kts | 331° |
| 2026-04-26 11:15 | 41.92197 | -84.24882 | 15181 ft | 372 kts | 331° |
| 2026-04-26 11:15 | 41.94489 | -84.26487 | 14719 ft | 369 kts | 331° |
| 2026-04-26 11:16 | 41.96760 | -84.28079 | 14234 ft | 367 kts | 331° |
| 2026-04-26 11:16 | 41.99022 | -84.29665 | 13736 ft | 364 kts | 330° |
| 2026-04-26 11:16 | 42.01267 | -84.31242 | 13241 ft | 363 kts | 331° |
| 2026-04-26 11:16 | 42.03499 | -84.32812 | 12769 ft | 361 kts | 331° |
| 2026-04-26 11:17 | 42.05715 | -84.34370 | 12284 ft | 359 kts | 331° |
| 2026-04-26 11:17 | 42.07923 | -84.35924 | 11813 ft | 356 kts | 332° |
| 2026-04-26 11:17 | 42.10092 | -84.37451 | 11584 ft | 344 kts | 332° |
| 2026-04-26 11:17 | 42.12164 | -84.38910 | 11464 ft | 328 kts | 332° |
| 2026-04-26 11:18 | 42.14113 | -84.40284 | 11356 ft | 312 kts | 332° |
| 2026-04-26 11:18 | 42.15997 | -84.41613 | 11232 ft | 299 kts | 332° |
| 2026-04-26 11:18 | 42.17799 | -84.42886 | 11098 ft | 286 kts | 332° |
| 2026-04-26 11:18 | 42.19523 | -84.44105 | 10971 ft | 274 kts | 332° |
| 2026-04-26 11:19 | 42.21188 | -84.45284 | 10853 ft | 267 kts | 332° |
| 2026-04-26 11:19 | 42.22833 | -84.46449 | 10635 ft | 267 kts | 332° |
| 2026-04-26 11:19 | 42.24476 | -84.47612 | 10327 ft | 266 kts | 332° |
| 2026-04-26 11:19 | 42.26110 | -84.48771 | 10020 ft | 265 kts | 332° |
| 2026-04-26 11:20 | 42.27743 | -84.49929 | 9752 ft | 276 kts | 332° |
| 2026-04-26 11:20 | 42.28907 | -84.50754 | 9663 ft | 283 kts | 332° |
| 2026-04-26 11:20 | 42.31212 | -84.52389 | 9279 ft | 282 kts | 333° |
| 2026-04-26 11:20 | 42.32952 | -84.53626 | 8808 ft | 282 kts | 333° |
| 2026-04-26 11:21 | 42.34688 | -84.54859 | 8474 ft | 281 kts | 333° |
| 2026-04-26 11:21 | 42.36417 | -84.56088 | 8164 ft | 281 kts | 333° |
| 2026-04-26 11:21 | 42.38140 | -84.57314 | 7854 ft | 280 kts | 334° |
| 2026-04-26 11:21 | 42.39865 | -84.58543 | 7554 ft | 279 kts | 334° |
| 2026-04-26 11:22 | 42.41582 | -84.59765 | 7251 ft | 279 kts | 334° |
| 2026-04-26 11:22 | 42.43296 | -84.60987 | 6965 ft | 278 kts | 334° |
| 2026-04-26 11:22 | 42.45005 | -84.62206 | 6658 ft | 277 kts | 334° |
| 2026-04-26 11:22 | 42.46710 | -84.63422 | 6356 ft | 277 kts | 334° |
| 2026-04-26 11:23 | 42.48411 | -84.64636 | 6048 ft | 276 kts | 334° |
| 2026-04-26 11:23 | 42.50106 | -84.65846 | 5757 ft | 274 kts | 334° |
| 2026-04-26 11:23 | 42.51794 | -84.67053 | 5466 ft | 273 kts | 334° |
| 2026-04-26 11:23 | 42.53473 | -84.68255 | 5182 ft | 272 kts | 334° |
| 2026-04-26 11:24 | 42.55145 | -84.69451 | 4899 ft | 271 kts | 334° |
| 2026-04-26 11:24 | 42.56788 | -84.70629 | 4613 ft | 270 kts | 334° |
| 2026-04-26 11:24 | 42.58449 | -84.71819 | 4333 ft | 269 kts | 334° |
| 2026-04-26 11:24 | 42.60107 | -84.73008 | 4046 ft | 269 kts | 334° |
| 2026-04-26 11:25 | 42.61759 | -84.74193 | 3761 ft | 268 kts | 334° |
| 2026-04-26 11:25 | 42.63375 | -84.75355 | 3648 ft | 256 kts | 334° |
| 2026-04-26 11:25 | 42.64911 | -84.76444 | 3539 ft | 243 kts | 336° |
| 2026-04-26 11:25 | 42.66473 | -84.77002 | 3408 ft | 222 kts | 3° |
| 2026-04-26 11:26 | 42.67858 | -84.76526 | 3301 ft | 195 kts | 33° |
| 2026-04-26 11:26 | 42.68855 | -84.75377 | 3224 ft | 179 kts | 51° |
| 2026-04-26 11:26 | 42.69542 | -84.74092 | 3210 ft | 163 kts | 58° |
| 2026-04-26 11:26 | 42.70202 | -84.72927 | 3145 ft | 149 kts | 56° |
| 2026-04-26 11:27 | 42.70811 | -84.71853 | 2962 ft | 137 kts | 56° |
| 2026-04-26 11:27 | 42.71383 | -84.70840 | 2792 ft | 134 kts | 57° |
| 2026-04-26 11:27 | 42.71943 | -84.69828 | 2603 ft | 134 kts | 57° |
| 2026-04-26 11:27 | 42.72506 | -84.68810 | 2429 ft | 134 kts | 57° |
| 2026-04-26 11:28 | 42.73067 | -84.67796 | 2238 ft | 134 kts | 57° |
| 2026-04-26 11:28 | 42.73626 | -84.66784 | 2070 ft | 134 kts | 57° |
| 2026-04-26 11:28 | 42.74183 | -84.65776 | 1893 ft | 132 kts | 56° |
| 2026-04-26 11:28 | 42.74734 | -84.64777 | 1724 ft | 132 kts | 55° |
| 2026-04-26 11:29 | 42.75286 | -84.63778 | 1536 ft | 132 kts | 54° |
| 2026-04-26 11:29 | 42.75829 | -84.62796 | 1376 ft | 132 kts | 54° |
| 2026-04-26 11:29 | 42.76380 | -84.61798 | 1192 ft | 131 kts | 54° |
| 2026-04-26 11:29 | 42.76927 | -84.60808 | 1023 ft | 131 kts | 54° |
| 2026-04-26 11:30 | 42.77460 | -84.59849 | 874 ft | 122 kts | 53° |
| 2026-04-26 11:30 | 42.77745 | -84.59340 | 869 ft | 65 kts | 53° |
| 2026-04-26 11:30 | 42.77890 | -84.59076 | 849 ft | 20 kts | 53° |
| 2026-04-26 11:30 | 42.77972 | -84.58915 | 851 ft | 17 kts | 70° |
| 2026-04-26 11:31 | 42.77950 | -84.58822 | 848 ft | 15 kts | 131° |
| 2026-04-26 11:31 | 42.77811 | -84.58629 | 845 ft | 32 kts | 134° |
| 2026-04-26 11:31 | 42.77668 | -84.58433 | 846 ft | 27 kts | 139° |
| 2026-04-26 11:31 | 42.77489 | -84.58386 | 864 ft | 25 kts | 176° |
| 2026-04-26 11:32 | 42.77421 | -84.58247 | 861 ft | 18 kts | 89° |
| 2026-04-26 11:32 | 42.77422 | -84.58165 | 865 ft | 0 kts | 89° |